createdAt,value
2024-04-15T00:01:24.991Z,72.08
2024-04-15T00:03:51.643Z,71.65
2024-04-15T00:06:18.566Z,71.35
2024-04-15T00:08:45.195Z,71.08
2024-04-15T00:11:13.061Z,71.04
2024-04-15T00:13:40.001Z,71.42
2024-04-15T00:16:10.824Z,71.03
2024-04-15T00:18:38.636Z,70.49
2024-04-15T00:21:09.933Z,70.64
2024-04-15T00:23:36.615Z,71.04
2024-04-15T00:26:03.988Z,71.85
2024-04-15T00:28:30.954Z,72.87
2024-04-15T00:30:57.962Z,73.99
2024-04-15T00:33:25.083Z,75.39
2024-04-15T00:35:51.851Z,76.03
2024-04-15T00:38:18.693Z,75.15
2024-04-15T00:40:45.535Z,75.74
2024-04-15T00:43:12.369Z,75.50
2024-04-15T00:45:39.813Z,76.12
2024-04-15T00:48:09.163Z,75.13
2024-04-15T00:50:38.957Z,74.67
2024-04-15T00:53:07.707Z,75.24
2024-04-15T00:55:37.005Z,75.90
2024-04-15T00:58:04.764Z,76.54
2024-04-15T01:00:32.140Z,76.73
2024-04-15T01:02:58.932Z,76.49
2024-04-15T01:05:25.708Z,76.66
2024-04-15T01:07:52.455Z,76.52
2024-04-15T01:10:19.753Z,76.79
2024-04-15T01:12:46.626Z,76.01
2024-04-15T01:15:13.346Z,75.33
2024-04-15T01:17:40.166Z,74.63
2024-04-15T01:20:07.210Z,74.19
2024-04-15T01:22:49.714Z,75.70
2024-04-15T01:25:16.479Z,75.95
2024-04-15T01:27:43.361Z,76.29
2024-04-15T01:30:10.586Z,76.52
2024-04-15T01:32:37.282Z,76.87
2024-04-15T01:35:04.177Z,76.60
2024-04-15T01:37:30.814Z,75.49
2024-04-15T01:39:57.580Z,75.69
2024-04-15T01:42:24.341Z,76.20
2024-04-15T01:44:51.003Z,76.05
2024-04-15T01:47:17.726Z,75.69
2024-04-15T01:49:44.461Z,75.38
2024-04-15T01:52:11.231Z,75.19
2024-04-15T01:54:37.958Z,75.13
2024-04-15T01:57:04.760Z,75.48
2024-04-15T01:59:31.422Z,75.28
2024-04-15T02:01:58.009Z,74.96
2024-04-15T02:04:24.737Z,75.00
2024-04-15T02:06:51.817Z,75.00
2024-04-15T02:09:19.378Z,75.48
2024-04-15T02:11:46.045Z,75.48
2024-04-15T02:14:12.683Z,75.45
2024-04-15T02:16:39.424Z,75.08
2024-04-15T02:19:06.024Z,74.29
2024-04-15T02:21:32.996Z,74.85
2024-04-15T02:23:59.744Z,74.65
2024-04-15T02:26:26.516Z,74.92
2024-04-15T02:28:53.186Z,74.41
2024-04-15T02:31:19.850Z,74.72
2024-04-15T02:33:46.625Z,74.67
2024-04-15T02:36:13.581Z,74.97
2024-04-15T02:38:40.218Z,75.55
2024-04-15T02:41:06.887Z,74.65
2024-04-15T02:43:33.494Z,74.57
2024-04-15T02:46:00.380Z,74.71
2024-04-15T02:48:27.075Z,74.48
2024-04-15T02:50:53.691Z,74.48
2024-04-15T02:53:20.319Z,74.92
2024-04-15T02:55:46.948Z,74.71
2024-04-15T02:58:13.671Z,74.59
2024-04-15T03:00:40.444Z,74.96
2024-04-15T03:03:07.111Z,76.06
2024-04-15T03:05:34.473Z,76.54
2024-04-15T03:08:01.093Z,76.77
2024-04-15T03:10:28.186Z,77.70
2024-04-15T03:12:56.292Z,78.29
2024-04-15T03:15:22.999Z,78.33
2024-04-15T03:17:50.272Z,78.14
2024-04-15T03:20:18.087Z,78.81
2024-04-15T03:22:51.405Z,78.58
2024-04-15T03:25:22.229Z,78.11
2024-04-15T03:27:50.124Z,78.56
2024-04-15T03:30:17.246Z,78.66
2024-04-15T03:32:44.030Z,78.22
2024-04-15T03:35:15.889Z,77.94
2024-04-15T03:37:43.878Z,78.14
2024-04-15T03:40:11.582Z,76.82
2024-04-15T03:42:38.362Z,75.42
2024-04-15T03:45:05.703Z,74.98
2024-04-15T03:47:32.702Z,74.74
2024-04-15T03:49:59.364Z,74.05
2024-04-15T03:52:26.040Z,74.60
2024-04-15T03:54:52.696Z,75.10
2024-04-15T03:57:20.214Z,74.95
2024-04-15T03:59:47.151Z,75.11
2024-04-15T04:02:13.916Z,77.11
2024-04-15T04:04:41.845Z,77.59
2024-04-15T04:07:08.724Z,76.87
2024-04-15T04:09:35.353Z,77.16
2024-04-15T04:12:01.968Z,76.45
2024-04-15T04:14:29.412Z,76.09
2024-04-15T04:16:55.987Z,75.40
2024-04-15T04:19:23.450Z,75.79
2024-04-15T04:21:50.163Z,77.03
2024-04-15T04:24:16.849Z,79.59
2024-04-15T04:26:43.479Z,79.85
2024-04-15T04:29:10.304Z,80.09
2024-04-15T04:31:40.389Z,78.53
2024-04-15T04:34:07.081Z,79.59
2024-04-15T04:36:33.714Z,79.67
2024-04-15T04:39:00.348Z,79.38
2024-04-15T04:41:27.004Z,79.19
2024-04-15T04:43:54.493Z,78.98
2024-04-15T04:46:21.182Z,78.33
2024-04-15T04:48:47.876Z,78.13
2024-04-15T04:51:14.512Z,77.23
2024-04-15T04:53:41.173Z,77.50
2024-04-15T04:56:08.870Z,77.10
2024-04-15T04:58:35.441Z,77.81
2024-04-15T05:01:11.715Z,78.17
2024-04-15T05:03:49.459Z,77.60
2024-04-15T05:06:17.716Z,77.65
2024-04-15T05:08:46.442Z,78.63
2024-04-15T05:11:13.799Z,79.58
2024-04-15T05:13:40.652Z,81.48
2024-04-15T05:16:08.660Z,80.88
2024-04-15T05:18:37.322Z,80.80
2024-04-15T05:21:05.509Z,80.40
2024-04-15T05:23:32.556Z,80.03
2024-04-15T05:26:01.535Z,78.50
2024-04-15T05:28:28.426Z,78.92
2024-04-15T05:30:57.283Z,78.67
2024-04-15T05:33:24.872Z,79.48
2024-04-15T05:35:51.768Z,78.93
2024-04-15T05:38:18.699Z,78.62
2024-04-15T05:40:46.350Z,78.94
2024-04-15T05:43:14.409Z,77.28
2024-04-15T05:45:42.012Z,77.57
2024-04-15T05:48:09.066Z,76.88
2024-04-15T05:50:35.714Z,76.48
2024-04-15T05:53:02.773Z,76.14
2024-04-15T05:55:29.403Z,75.28
2024-04-15T05:57:56.018Z,75.75
2024-04-15T06:00:25.172Z,75.04
2024-04-15T06:02:51.821Z,75.17
2024-04-15T06:05:18.763Z,74.42
2024-04-15T06:07:45.437Z,75.29
2024-04-15T06:10:12.412Z,76.79
2024-04-15T06:12:41.129Z,76.19
2024-04-15T06:15:11.044Z,75.92
2024-04-15T06:17:38.083Z,75.05
2024-04-15T06:20:05.167Z,74.91
2024-04-15T06:22:31.871Z,73.49
2024-04-15T06:24:58.540Z,73.30
2024-04-15T06:27:25.144Z,71.95
2024-04-15T06:29:51.748Z,71.42
2024-04-15T06:32:18.369Z,71.49
2024-04-15T06:34:45.008Z,70.58
2024-04-15T06:37:11.676Z,69.71
2024-04-15T06:39:38.894Z,69.08
2024-04-15T06:42:05.635Z,68.40
2024-04-15T06:44:32.919Z,66.05
2024-04-15T06:46:59.754Z,68.23
2024-04-15T06:49:26.574Z,67.52
2024-04-15T06:51:53.266Z,66.40
2024-04-15T06:54:19.947Z,64.75
2024-04-15T06:56:46.564Z,65.08
2024-04-15T06:59:13.569Z,64.82
2024-04-15T07:01:40.581Z,62.32
2024-04-15T07:04:08.388Z,60.63
2024-04-15T07:06:35.247Z,62.41
2024-04-15T07:09:01.939Z,60.99
2024-04-15T07:11:28.889Z,60.99
2024-04-15T07:13:55.631Z,61.03
2024-04-15T07:16:22.459Z,60.28
2024-04-15T07:18:49.206Z,60.10
2024-04-15T07:21:16.014Z,60.20
2024-04-15T07:23:46.031Z,61.09
2024-04-15T07:26:12.902Z,61.16
2024-04-15T07:28:39.518Z,59.38
2024-04-15T07:31:07.144Z,58.93
2024-04-15T07:33:33.919Z,60.69
2024-04-15T07:36:01.775Z,59.94
2024-04-15T07:38:28.701Z,59.56
2024-04-15T07:40:55.396Z,59.99
2024-04-15T07:43:22.177Z,61.20
2024-04-15T07:45:49.082Z,59.16
2024-04-15T07:48:16.625Z,58.79
2024-04-15T07:50:43.513Z,59.39
2024-04-15T07:53:10.389Z,59.75
2024-04-15T07:55:37.034Z,60.71
2024-04-15T07:58:03.946Z,60.70
2024-04-15T08:00:30.583Z,59.66
2024-04-15T08:02:57.522Z,55.64
2024-04-15T08:05:24.156Z,54.00
2024-04-15T08:07:53.461Z,55.24
2024-04-15T08:10:20.444Z,53.87
2024-04-15T08:12:47.570Z,54.14
2024-04-15T08:15:14.547Z,53.36
2024-04-15T08:17:41.275Z,55.28
2024-04-15T08:20:09.347Z,55.47
2024-04-15T08:22:36.011Z,55.02
2024-04-15T08:25:10.031Z,55.13
2024-04-15T08:27:38.773Z,56.97
2024-04-15T08:30:06.068Z,56.59
2024-04-15T08:32:33.290Z,57.11
2024-04-15T08:35:00.093Z,57.39
2024-04-15T08:37:26.994Z,55.46
2024-04-15T08:39:53.746Z,54.33
2024-04-15T08:42:31.607Z,56.25
2024-04-15T08:45:00.749Z,52.42
2024-04-15T08:47:31.993Z,52.92
2024-04-15T08:49:59.313Z,52.68
2024-04-15T08:52:26.232Z,50.87
2024-04-15T08:54:53.215Z,50.58
2024-04-15T08:57:20.921Z,50.24
2024-04-15T08:59:47.577Z,49.04
2024-04-15T09:02:17.595Z,49.92
2024-04-15T09:04:44.722Z,50.50
2024-04-15T09:07:11.870Z,49.67
2024-04-15T09:09:38.605Z,48.04
2024-04-15T09:12:05.482Z,47.96
2024-04-15T09:14:33.775Z,49.50
2024-04-15T09:17:02.635Z,49.53
2024-04-15T09:19:30.618Z,48.02
2024-04-15T09:22:03.517Z,47.58
2024-04-15T09:24:30.220Z,46.99
2024-04-15T09:26:56.821Z,46.41
2024-04-15T09:29:23.447Z,46.66
2024-04-15T09:31:50.144Z,46.29
2024-04-15T09:34:17.215Z,48.40
2024-04-15T09:36:46.216Z,47.63
2024-04-15T09:39:14.425Z,49.26
2024-04-15T09:41:43.359Z,49.35
2024-04-15T09:44:13.446Z,50.26
2024-04-15T09:46:42.412Z,50.16
2024-04-15T09:49:11.437Z,48.99
2024-04-15T09:51:42.201Z,50.58
2024-04-15T09:54:10.956Z,50.10
2024-04-15T09:56:48.851Z,50.84
2024-04-15T09:59:16.905Z,50.64
2024-04-15T10:01:46.987Z,51.47
2024-04-15T10:04:25.213Z,52.74
2024-04-15T10:06:59.328Z,52.22
2024-04-15T10:09:26.240Z,50.97
2024-04-15T10:11:53.460Z,52.50
2024-04-15T10:14:23.221Z,51.26
2024-04-15T10:16:50.849Z,51.98
2024-04-15T10:19:26.479Z,51.51
2024-04-15T10:21:53.688Z,50.46
2024-04-15T10:24:32.729Z,50.29
2024-04-15T10:27:00.704Z,48.23
2024-04-15T10:29:29.967Z,49.33
2024-04-15T10:31:58.391Z,49.14
2024-04-15T10:34:27.703Z,49.15
2024-04-15T10:36:56.501Z,47.75
2024-04-15T10:39:25.327Z,46.31
2024-04-15T10:41:52.599Z,48.39
2024-04-15T10:44:19.326Z,46.34
2024-04-15T10:46:47.766Z,47.04
2024-04-15T10:49:15.803Z,46.09
2024-04-15T10:51:44.119Z,46.88
2024-04-15T10:54:10.751Z,46.13
2024-04-15T10:56:37.447Z,46.36
2024-04-15T10:59:04.598Z,44.55
2024-04-15T11:01:31.499Z,45.32
2024-04-15T11:03:58.664Z,44.53
2024-04-15T11:06:25.510Z,44.72
2024-04-15T11:08:52.115Z,45.58
2024-04-15T11:11:21.829Z,44.23
2024-04-15T11:13:49.651Z,45.34
2024-04-15T11:16:16.644Z,45.10
2024-04-15T11:18:43.374Z,43.64
2024-04-15T11:21:10.324Z,43.34
2024-04-15T11:23:37.478Z,45.85
2024-04-15T11:26:06.068Z,46.32
2024-04-15T11:28:34.580Z,46.70
2024-04-15T11:31:02.311Z,45.88
2024-04-15T11:33:29.547Z,47.15
2024-04-15T11:35:56.368Z,46.71
2024-04-15T11:38:23.570Z,46.19
2024-04-15T11:40:51.386Z,48.21
2024-04-15T11:43:19.048Z,49.57
2024-04-15T11:45:52.109Z,47.96
2024-04-15T11:48:19.260Z,48.58
2024-04-15T11:50:45.931Z,48.65
2024-04-15T11:53:12.586Z,49.63
2024-04-15T11:55:39.732Z,47.89
2024-04-15T11:58:08.447Z,49.72
2024-04-15T12:00:35.396Z,49.59
2024-04-15T12:03:02.546Z,50.68
2024-04-15T12:05:29.280Z,49.98
2024-04-15T12:07:57.606Z,48.76
2024-04-15T12:10:24.340Z,48.37
2024-04-15T12:12:51.145Z,47.46
2024-04-15T12:15:17.841Z,47.87
2024-04-15T12:17:45.870Z,47.31
2024-04-15T12:20:12.554Z,46.80
2024-04-15T12:22:39.168Z,46.06
2024-04-15T12:25:08.838Z,47.32
2024-04-15T12:27:40.624Z,47.46
2024-04-15T12:30:10.985Z,47.21
2024-04-15T12:32:41.120Z,46.22
2024-04-15T12:35:08.090Z,47.31
2024-04-15T12:37:35.590Z,48.67
2024-04-15T12:40:06.550Z,48.70
2024-04-15T12:42:33.212Z,49.32
2024-04-15T12:44:59.821Z,49.85
2024-04-15T12:47:26.682Z,50.02
2024-04-15T12:49:53.602Z,50.19
2024-04-15T12:52:20.279Z,52.11
2024-04-15T12:54:49.403Z,60.23
2024-04-15T12:57:17.696Z,63.70
2024-04-15T12:59:44.466Z,69.11
2024-04-15T13:02:11.355Z,72.69
2024-04-15T13:04:38.514Z,75.06
2024-04-15T13:07:05.506Z,76.44
2024-04-15T13:09:32.235Z,75.73
2024-04-15T13:11:59.080Z,77.83
2024-04-15T13:14:25.689Z,79.15
2024-04-15T13:16:52.287Z,74.39
2024-04-15T13:19:19.197Z,76.83
2024-04-15T13:21:46.000Z,77.62
2024-04-15T13:24:12.616Z,76.59
2024-04-15T13:26:39.226Z,76.35
2024-04-15T13:29:05.825Z,76.34
2024-04-15T13:31:32.804Z,74.77
2024-04-15T13:33:59.812Z,73.65
2024-04-15T13:36:26.749Z,74.37
2024-04-15T13:38:53.688Z,75.05
2024-04-15T13:41:20.323Z,75.25
2024-04-15T13:43:47.007Z,72.44
2024-04-15T13:46:14.788Z,75.32
2024-04-15T13:48:41.805Z,73.61
2024-04-15T13:51:08.604Z,72.67
2024-04-15T13:53:35.222Z,71.77
2024-04-15T13:56:02.019Z,72.77
2024-04-15T13:58:29.141Z,72.16
2024-04-15T14:00:57.616Z,73.05
2024-04-15T14:03:24.764Z,69.95
2024-04-15T14:05:52.093Z,72.47
2024-04-15T14:08:19.143Z,75.20
2024-04-15T14:10:46.303Z,76.58
2024-04-15T14:13:14.198Z,75.54
2024-04-15T14:15:41.542Z,78.37
2024-04-15T14:18:08.834Z,77.25
2024-04-15T14:20:35.530Z,76.15
2024-04-15T14:23:02.109Z,79.24
2024-04-15T14:25:28.734Z,78.95
2024-04-15T14:27:55.755Z,78.36
2024-04-15T14:30:22.432Z,78.39
2024-04-15T14:32:50.500Z,78.07
2024-04-15T14:35:18.289Z,75.91
2024-04-15T14:37:46.182Z,75.23
2024-04-15T14:40:21.821Z,74.96
2024-04-15T14:42:51.102Z,74.41
2024-04-15T14:45:18.131Z,74.52
2024-04-15T14:47:46.157Z,73.43
2024-04-15T14:50:13.138Z,73.02
2024-04-15T14:52:39.726Z,73.23
2024-04-15T14:55:06.520Z,71.80
2024-04-15T14:57:33.698Z,75.13
2024-04-15T15:00:00.602Z,74.57
2024-04-15T15:02:27.394Z,75.59
2024-04-15T15:04:54.023Z,73.72
2024-04-15T15:07:20.762Z,73.43
2024-04-15T15:09:47.479Z,74.57
2024-04-15T15:12:14.727Z,73.83
2024-04-15T15:14:41.318Z,73.97
2024-04-15T15:17:09.202Z,73.56
2024-04-15T15:19:36.581Z,74.60
2024-04-15T15:22:03.494Z,73.43
2024-04-15T15:24:30.193Z,74.77
2024-04-15T15:26:56.976Z,74.05
2024-04-15T15:29:23.986Z,73.39
2024-04-15T15:31:50.610Z,73.68
2024-04-15T15:34:17.419Z,73.81
2024-04-15T15:36:44.436Z,75.60
2024-04-15T15:39:11.152Z,76.02
2024-04-15T15:41:37.841Z,75.14
2024-04-15T15:44:04.651Z,76.89
2024-04-15T15:46:31.544Z,76.44
2024-04-15T15:48:58.263Z,75.30
2024-04-15T15:51:24.904Z,75.47
2024-04-15T15:53:51.514Z,76.99
2024-04-15T15:56:18.573Z,77.65
2024-04-15T15:58:45.867Z,76.41
2024-04-15T16:01:12.558Z,76.66
2024-04-15T16:03:39.412Z,77.29
2024-04-15T16:06:08.259Z,75.76
2024-04-15T16:08:34.874Z,76.61
2024-04-15T16:11:01.514Z,74.35
2024-04-15T16:13:28.864Z,75.31
2024-04-15T16:15:55.574Z,75.90
2024-04-15T16:18:22.616Z,76.15
2024-04-15T16:20:49.473Z,75.88
2024-04-15T16:23:16.094Z,74.96
2024-04-15T16:25:42.838Z,74.70
2024-04-15T16:28:09.476Z,74.56
2024-04-15T16:30:36.216Z,74.26
2024-04-15T16:33:03.143Z,74.43
2024-04-15T16:35:29.948Z,74.65
2024-04-15T16:37:56.618Z,74.27
2024-04-15T16:40:23.346Z,74.65
2024-04-15T16:42:49.975Z,75.02
2024-04-15T16:45:17.019Z,74.48
2024-04-15T16:47:44.729Z,75.17
2024-04-15T16:50:11.616Z,74.65
2024-04-15T16:52:39.559Z,74.68
2024-04-15T16:55:06.528Z,73.99
2024-04-15T16:57:33.199Z,74.52
2024-04-15T16:59:59.792Z,74.94
2024-04-15T17:02:27.487Z,74.62
2024-04-15T17:04:54.287Z,74.55
2024-04-15T17:07:21.259Z,74.59
2024-04-15T17:09:48.591Z,74.42
2024-04-15T17:12:15.254Z,74.58
2024-04-15T17:14:42.011Z,74.43
2024-04-15T17:17:11.766Z,75.29
2024-04-15T17:19:39.336Z,75.39
2024-04-15T17:22:06.150Z,75.29
2024-04-15T17:24:32.865Z,76.45
2024-04-15T17:26:59.882Z,77.48
2024-04-15T17:29:27.278Z,76.96
2024-04-15T17:31:54.419Z,76.36
2024-04-15T17:34:21.173Z,76.42
2024-04-15T17:36:47.997Z,76.59
2024-04-15T17:39:14.709Z,76.13
2024-04-15T17:41:41.352Z,75.51
2024-04-15T17:44:09.174Z,76.23
2024-04-15T17:46:37.060Z,76.39
2024-04-15T17:49:03.742Z,76.34
2024-04-15T17:51:30.446Z,76.60
2024-04-15T17:53:57.069Z,76.10
2024-04-15T17:56:24.071Z,76.27
2024-04-15T17:58:50.876Z,75.69
2024-04-15T18:01:17.663Z,76.22
2024-04-15T18:03:45.782Z,75.81
2024-04-15T18:06:12.742Z,75.44
2024-04-15T18:08:39.927Z,75.20
2024-04-15T18:11:06.694Z,74.84
2024-04-15T18:13:33.516Z,75.11
2024-04-15T18:16:00.708Z,74.73
2024-04-15T18:18:30.362Z,75.54
2024-04-15T18:20:59.022Z,75.71
2024-04-15T18:23:25.872Z,75.72
2024-04-15T18:25:52.784Z,76.42
2024-04-15T18:28:20.102Z,75.76
2024-04-15T18:30:46.854Z,76.41
2024-04-15T18:33:13.495Z,76.15
2024-04-15T18:35:40.313Z,76.12
2024-04-15T18:38:08.552Z,75.41
2024-04-15T18:40:35.366Z,75.24
2024-04-15T18:43:02.244Z,75.34
2024-04-15T18:45:28.992Z,76.02
2024-04-15T18:47:55.733Z,74.97
2024-04-15T18:50:24.063Z,75.71
2024-04-15T18:52:50.851Z,75.04
2024-04-15T18:55:17.635Z,74.91
2024-04-15T18:57:44.492Z,76.32
2024-04-15T19:00:11.782Z,76.02
2024-04-15T19:02:38.494Z,77.63
2024-04-15T19:05:05.464Z,79.56
2024-04-15T19:07:32.248Z,80.90
2024-04-15T19:09:59.028Z,79.73
2024-04-15T19:12:25.653Z,80.75
2024-04-15T19:15:05.666Z,81.33
2024-04-15T19:17:38.960Z,80.29
2024-04-15T19:20:06.212Z,80.40
2024-04-15T19:22:33.068Z,81.09
2024-04-15T19:24:59.770Z,81.75
2024-04-15T19:27:26.496Z,84.39
2024-04-15T19:29:53.807Z,83.46
2024-04-15T19:32:20.667Z,83.98
2024-04-15T19:34:49.228Z,84.46
2024-04-15T19:37:16.032Z,84.05
2024-04-15T19:39:43.053Z,84.41
2024-04-15T19:42:09.692Z,83.26
2024-04-15T19:44:36.352Z,84.46
2024-04-15T19:47:03.276Z,84.48
2024-04-15T19:49:30.072Z,84.52
2024-04-15T19:51:56.904Z,84.90
2024-04-15T19:54:23.618Z,84.73
2024-04-15T19:56:51.162Z,84.25
2024-04-15T19:59:17.847Z,84.69
2024-04-15T20:01:44.640Z,84.91
2024-04-15T20:04:11.400Z,84.87
2024-04-15T20:06:38.136Z,84.16
2024-04-15T20:09:05.164Z,84.30
2024-04-15T20:11:31.987Z,84.30
2024-04-15T20:13:58.672Z,84.68
2024-04-15T20:16:25.348Z,83.25
2024-04-15T20:18:55.557Z,85.09
2024-04-15T20:21:22.404Z,85.51
2024-04-15T20:23:49.327Z,85.67
2024-04-15T20:26:16.097Z,86.11
2024-04-15T20:28:42.714Z,84.62
2024-04-15T20:31:09.456Z,85.77
2024-04-15T20:33:36.207Z,85.72
2024-04-15T20:36:03.582Z,85.38
2024-04-15T20:38:31.556Z,84.71
2024-04-15T20:40:59.406Z,86.04
2024-04-15T20:43:26.213Z,86.04
2024-04-15T20:45:52.985Z,85.48
2024-04-15T20:48:19.647Z,85.37
2024-04-15T20:50:46.320Z,85.07
2024-04-15T20:53:13.043Z,85.63
2024-04-15T20:55:39.896Z,85.95
2024-04-15T20:58:06.850Z,85.44
2024-04-15T21:00:33.537Z,85.30
2024-04-15T21:03:01.890Z,85.79
2024-04-15T21:05:28.558Z,85.17
2024-04-15T21:07:55.293Z,84.39
2024-04-15T21:10:23.916Z,84.01
2024-04-15T21:12:50.769Z,84.29
2024-04-15T21:15:17.610Z,83.88
2024-04-15T21:17:44.299Z,84.04
2024-04-15T21:20:11.051Z,84.54
2024-04-15T21:22:37.942Z,84.78
2024-04-15T21:25:05.113Z,84.13
2024-04-15T21:27:31.823Z,83.92
2024-04-15T21:29:58.640Z,84.99
2024-04-15T21:32:25.470Z,84.09
2024-04-15T21:34:52.162Z,84.73
2024-04-15T21:37:18.861Z,84.30
2024-04-15T21:39:46.532Z,83.99
2024-04-15T21:42:13.383Z,83.92
2024-04-15T21:44:40.027Z,84.22
2024-04-15T21:47:10.704Z,84.47
2024-04-15T21:49:37.964Z,84.55
2024-04-15T21:52:05.135Z,83.52
2024-04-15T21:54:32.036Z,84.94
2024-04-15T21:57:01.767Z,85.01
2024-04-15T21:59:29.317Z,84.89
2024-04-15T22:01:56.116Z,84.50
2024-04-15T22:04:23.250Z,84.80
2024-04-15T22:06:49.936Z,84.24
2024-04-15T22:09:17.473Z,85.11
2024-04-15T22:11:44.356Z,84.63
2024-04-15T22:14:11.035Z,84.02
2024-04-15T22:16:37.804Z,84.21
2024-04-15T22:19:04.604Z,84.23
2024-04-15T22:21:31.259Z,83.79
2024-04-15T22:23:57.940Z,84.19
2024-04-15T22:26:24.634Z,84.23
2024-04-15T22:28:51.266Z,83.93
2024-04-15T22:31:17.998Z,83.13
2024-04-15T22:33:44.739Z,83.15
2024-04-15T22:36:11.448Z,83.91
2024-04-15T22:38:38.075Z,83.10
2024-04-15T22:41:04.806Z,84.56
2024-04-15T22:43:31.557Z,84.15
2024-04-15T22:45:58.224Z,84.29
2024-04-15T22:48:24.906Z,84.54
2024-04-15T22:50:51.617Z,84.33
2024-04-15T22:53:18.305Z,83.75
2024-04-15T22:55:45.185Z,83.42
2024-04-15T22:58:11.898Z,82.94
2024-04-15T23:00:38.521Z,83.18
2024-04-15T23:03:05.389Z,82.77
2024-04-15T23:05:32.061Z,82.81
2024-04-15T23:07:59.610Z,82.02
2024-04-15T23:10:26.400Z,82.06
2024-04-15T23:12:53.093Z,82.53
2024-04-15T23:15:19.734Z,82.63
2024-04-15T23:17:46.521Z,82.09
2024-04-15T23:20:13.229Z,82.59
2024-04-15T23:22:39.876Z,82.79
2024-04-15T23:25:09.643Z,83.11
2024-04-15T23:27:39.772Z,82.49
2024-04-15T23:30:07.123Z,80.89
2024-04-15T23:32:33.969Z,81.33
2024-04-15T23:35:00.708Z,81.89
2024-04-15T23:37:27.429Z,82.03
2024-04-15T23:39:54.664Z,81.48
2024-04-15T23:42:21.504Z,81.06
2024-04-15T23:44:48.121Z,81.77
2024-04-15T23:47:14.816Z,81.20
2024-04-15T23:49:42.022Z,81.42
2024-04-15T23:52:08.776Z,82.05
2024-04-15T23:54:35.434Z,81.44
2024-04-15T23:57:02.149Z,82.13
2024-04-15T23:59:28.826Z,82.62
